.
WxDataArchive / Data Records for 2006-12-18
2006-12-17 December 2006 2006-12-19

Data Records for Monday, 18 December 2006

Time	Temp	Chill	HIndex	Humid	Dewpt	 Wind 	HiWind	WindDir	Rain 	Barom 
-----	----	-----	------	-----	-----	------	------	-------	-----	----- 
00:00	43.1	43.1	43.1	82	38.0	0	2	22	0.00	30.069 
00:05	42.9	42.9	42.9	83	38.1	0	1	22	0.00	30.069 
00:10	42.8	42.8	42.8	83	38.0	0	1	22	0.01	30.069 
00:15	42.5	42.5	42.5	84	38.0	0	1	22	0.00	30.071 
00:20	42.3	42.3	42.3	84	37.8	0	0	---	0.00	30.071 
00:25	42.3	42.3	42.3	85	38.1	0	2	22	0.00	30.071 
00:30	42.3	42.3	42.3	86	38.4	0	1	22	0.00	30.062 
00:35	42.2	42.2	42.2	86	38.3	0	0	---	0.00	30.062 
00:40	42.1	42.1	42.1	87	38.5	0	0	---	0.00	30.062 
00:45	42.1	42.1	42.1	88	38.8	0	0	---	0.00	30.062 
00:50	42.1	42.1	42.1	88	38.8	0	1	22	0.00	30.062 
00:55	42.1	42.1	42.1	88	38.8	0	1	22	0.00	30.062 
01:00	42.1	42.1	42.1	88	38.8	0	1	22	0.00	30.072 
01:05	41.9	41.9	41.9	88	38.6	0	0	---	0.01	30.072 
01:10	41.9	41.9	41.9	88	38.6	0	0	---	0.01	30.072 
01:15	41.8	41.8	41.8	89	38.8	0	1	22	0.00	30.085 
01:20	41.5	41.5	41.5	89	38.5	0	2	338	0.00	30.085 
01:25	41.5	41.5	41.5	89	38.5	0	0	---	0.00	30.085 
01:30	41.3	41.3	41.3	89	38.3	0	1	338	0.00	30.076 
01:35	41.5	41.5	41.5	90	38.8	0	1	338	0.00	30.076 
01:40	41.5	41.5	41.5	90	38.8	0	2	338	0.00	30.076 
01:45	41.5	41.5	41.5	89	38.5	0	2	338	0.00	30.070 
01:50	41.5	41.5	41.5	89	38.5	0	1	338	0.00	30.070 
01:55	41.5	41.5	41.5	88	38.2	0	2	338	0.00	30.070 
02:00	41.3	41.3	41.3	86	37.4	0	2	270	0.00	30.081 
02:05	41.3	41.3	41.3	85	37.1	0	1	270	0.00	30.081 
02:10	41.2	41.2	41.2	85	37.0	0	1	270	0.01	30.081 
02:15	41.2	41.2	41.2	86	37.3	0	0	---	0.00	30.093 
02:20	41.1	41.1	41.1	86	37.2	0	1	270	0.00	30.093 
02:25	41.1	41.1	41.1	86	37.2	0	1	270	0.00	30.093 
02:30	41.1	41.1	41.1	85	36.9	0	1	270	0.00	30.096 
02:35	41.1	41.1	41.1	85	36.9	0	1	270	0.00	30.096 
02:40	40.9	40.9	40.9	84	36.4	0	0	---	0.00	30.096 
02:45	40.9	40.9	40.9	84	36.4	0	1	270	0.00	30.098 
02:50	41.1	41.1	41.1	84	36.6	0	1	270	0.00	30.098 
02:55	40.9	40.9	40.9	85	36.7	0	0	---	0.01	30.098 
03:00	40.9	40.9	40.9	86	37.0	0	1	270	0.00	30.106 
03:05	40.8	40.8	40.8	87	37.2	0	1	270	0.00	30.106 
03:10	40.6	40.6	40.6	87	37.0	0	3	270	0.00	30.106 
03:15	40.6	40.6	40.6	87	37.0	0	3	248	0.00	30.127 
03:20	40.6	40.6	40.6	85	36.4	1	2	315	0.00	30.127 
03:25	40.5	40.5	40.5	83	35.8	1	3	315	0.00	30.127 
03:30	40.2	40.2	40.2	80	34.5	0	1	315	0.00	30.133 
03:35	40.2	40.2	40.2	80	34.5	0	1	315	0.00	30.133 
03:40	40.1	40.1	40.1	82	35.1	0	0	---	0.00	30.133 
03:45	40.1	40.1	40.1	82	35.1	0	1	315	0.00	30.143 
03:50	39.9	39.9	39.9	83	35.2	0	1	315	0.01	30.143 
03:55	39.9	39.9	39.9	84	35.5	0	1	315	0.00	30.143 
04:00	39.8	39.8	39.8	84	35.4	0	1	315	0.00	30.145 
04:05	39.8	39.8	39.8	85	35.7	0	1	315	0.00	30.145 
04:10	39.8	39.8	39.8	86	36.0	0	1	315	0.00	30.145 
04:15	39.8	39.8	39.8	87	36.3	0	0	---	0.00	30.144 
04:20	39.8	39.8	39.8	88	36.5	0	0	---	0.00	30.144 
04:25	39.8	39.8	39.8	88	36.5	0	0	---	0.00	30.144 
04:30	39.8	39.8	39.8	88	36.5	0	0	---	0.00	30.136 
04:35	39.8	39.8	39.8	88	36.5	0	0	---	0.00	30.136 
04:40	39.8	39.8	39.8	88	36.5	0	0	---	0.00	30.136 
04:45	39.8	39.8	39.8	89	36.8	0	1	315	0.00	30.140 
04:50	39.8	39.8	39.8	89	36.8	0	0	---	0.00	30.140 
04:55	39.8	39.8	39.8	90	37.1	0	0	---	0.00	30.140 
05:00	39.9	39.9	39.9	90	37.2	0	0	---	0.00	30.148 
05:05	39.9	39.9	39.9	91	37.5	0	1	292	0.00	30.148 
05:10	39.9	39.9	39.9	90	37.2	0	0	---	0.00	30.148 
05:15	39.9	39.9	39.9	89	36.9	0	0	---	0.00	30.153 
05:20	39.8	39.8	39.8	89	36.8	0	1	292	0.00	30.153 
05:25	39.8	39.8	39.8	87	36.3	0	1	292	0.00	30.153 
05:30	39.9	39.9	39.9	87	36.4	0	1	292	0.00	30.164 
05:35	39.9	39.9	39.9	87	36.4	0	1	292	0.00	30.164 
05:40	39.9	39.9	39.9	86	36.1	0	1	292	0.00	30.164 
05:45	39.9	39.9	39.9	86	36.1	0	1	292	0.00	30.166 
05:50	40.1	40.1	40.1	85	36.0	0	1	292	0.00	30.166 
05:55	40.1	40.1	40.1	86	36.3	0	1	292	0.00	30.166 
06:00	40.1	40.1	40.1	85	36.0	0	1	292	0.00	30.168 
06:05	40.1	40.1	40.1	85	36.0	0	0	---	0.00	30.168 
06:10	40.1	40.1	40.1	85	36.0	0	1	292	0.00	30.168 
06:15	40.1	40.1	40.1	85	36.0	0	1	292	0.00	30.169 
06:20	39.9	39.9	39.9	85	35.8	0	1	292	0.00	30.169 
06:25	39.8	39.8	39.8	85	35.7	0	1	292	0.00	30.169 
06:30	39.6	39.6	39.6	85	35.5	0	1	292	0.00	30.191 
06:35	39.5	39.5	39.5	85	35.4	0	0	---	0.00	30.191 
06:40	39.3	39.3	39.3	86	35.5	0	1	292	0.00	30.191 
06:45	39.2	39.2	39.2	86	35.4	0	1	292	0.00	30.200 
06:50	39.1	39.1	39.1	86	35.3	0	1	292	0.00	30.200 
06:55	38.9	38.9	38.9	86	35.1	0	2	292	0.00	30.200 
07:00	38.9	38.9	38.9	86	35.1	0	1	292	0.00	30.204 
07:05	39.1	39.1	39.1	86	35.3	0	1	292	0.00	30.204 
07:10	39.1	39.1	39.1	86	35.3	0	0	---	0.00	30.204 
07:15	38.9	38.9	38.9	86	35.1	0	0	---	0.00	30.200 
07:20	38.9	38.9	38.9	86	35.1	0	0	---	0.00	30.200 
07:25	38.8	38.8	38.8	87	35.3	0	0	---	0.00	30.200 
07:30	38.8	38.8	38.8	87	35.3	0	0	---	0.00	30.211 
07:35	38.8	38.8	38.8	87	35.3	0	0	---	0.00	30.211 
07:40	38.8	38.8	38.8	87	35.3	0	0	---	0.00	30.211 
07:45	38.8	38.8	38.8	88	35.6	0	1	292	0.00	30.216 
07:50	38.8	38.8	38.8	88	35.6	0	0	---	0.00	30.216 
07:55	38.8	38.8	38.8	88	35.6	0	1	292	0.00	30.216 
08:00	38.8	38.8	38.8	88	35.6	0	1	292	0.00	30.223 
08:05	38.8	38.8	38.8	88	35.6	0	0	---	0.00	30.223 
08:10	38.8	38.8	38.8	88	35.6	0	0	---	0.00	30.223 
08:15	38.8	38.8	38.8	88	35.6	0	0	---	0.00	30.227 
08:20	38.8	38.8	38.8	88	35.6	0	0	---	0.00	30.227 
08:25	38.8	38.8	38.8	88	35.6	0	0	---	0.00	30.227 
08:30	38.9	38.9	38.9	88	35.7	0	0	---	0.00	30.229 
08:35	39.1	39.1	39.1	88	35.9	0	1	292	0.00	30.229 
08:40	39.2	39.2	39.2	88	35.9	0	1	292	0.00	30.229 
08:45	39.2	39.2	39.2	88	35.9	0	1	292	0.00	30.245 
08:50	39.3	39.3	39.3	87	35.8	0	2	292	0.00	30.245 
08:55	39.5	39.5	39.5	87	36.0	0	0	---	0.00	30.245 
09:00	39.5	39.5	39.5	87	36.0	0	1	292	0.00	30.248 
09:05	39.6	39.6	39.6	87	36.1	0	2	292	0.00	30.248 
09:10	39.9	39.9	39.9	86	36.1	0	1	292	0.00	30.248 
09:15	40.2	40.2	40.2	85	36.1	0	2	292	0.00	30.253 
09:20	40.3	40.3	40.3	84	35.9	1	2	248	0.00	30.253 
09:25	40.5	40.5	40.5	84	36.1	0	4	248	0.00	30.253 
09:30	40.6	40.6	40.6	84	36.2	0	3	248	0.00	30.262 
09:35	40.8	40.8	40.8	82	35.7	1	3	0	0.00	30.262 
09:40	40.9	40.9	40.9	82	35.8	1	3	248	0.00	30.262 
09:45	40.9	40.9	40.9	82	35.8	1	2	292	0.00	30.274 
09:50	41.1	41.1	41.1	81	35.7	1	5	338	0.00	30.274 
09:55	41.2	41.2	41.2	81	35.8	1	2	315	0.00	30.274 
10:00	41.3	41.3	41.3	80	35.6	1	3	292	0.00	30.275 
10:05	41.3	41.3	41.3	79	35.3	1	4	338	0.00	30.275 
10:10	41.3	41.3	41.3	78	35.0	1	4	292	0.00	30.275 
10:15	41.5	41.5	41.5	77	34.8	1	5	292	0.00	30.282 
10:20	41.5	41.5	41.5	76	34.5	1	3	292	0.00	30.282 
10:25	41.6	41.6	41.6	74	33.9	1	6	248	0.00	30.282 
10:30	41.8	41.8	41.8	72	33.4	0	3	338	0.00	30.290 
10:35	41.9	41.9	41.9	73	33.9	1	3	315	0.00	30.290 
10:40	42.1	42.1	42.1	72	33.7	1	3	248	0.00	30.290 
10:45	42.2	42.2	42.2	70	33.1	1	3	338	0.00	30.292 
10:50	42.2	42.2	42.2	69	32.8	1	3	338	0.00	30.292 
10:55	42.3	42.3	42.3	69	32.9	1	3	315	0.00	30.292 
11:00	42.6	42.6	42.6	68	32.8	0	2	315	0.00	30.293 
11:05	42.6	42.6	42.6	65	31.7	2	4	270	0.00	30.293 
11:10	42.6	42.6	42.6	66	32.0	2	4	315	0.00	30.293 
11:15	42.8	42.8	42.8	67	32.6	1	3	338	0.00	30.297 
11:20	42.6	42.6	42.6	66	32.0	1	5	270	0.00	30.297 
11:25	42.9	42.9	42.9	65	32.0	1	3	338	0.00	30.297 
11:30	43.1	43.1	43.1	65	32.1	1	2	315	0.00	30.300 
11:35	43.2	43.2	43.2	63	31.5	1	3	315	0.00	30.300 
11:40	43.3	43.3	43.3	64	32.0	2	4	292	0.00	30.300 
11:45	43.3	43.3	43.3	62	31.2	1	4	338	0.00	30.294 
11:50	43.5	43.5	43.5	61	31.0	1	4	315	0.00	30.294 
11:55	43.5	43.5	43.5	61	31.0	1	3	292	0.00	30.294 
12:00	43.8	43.8	43.8	61	31.2	1	3	292	0.00	30.293 
12:05	43.8	43.8	43.8	62	31.6	1	3	270	0.00	30.293 
12:10	43.8	43.8	43.8	59	30.4	1	3	315	0.00	30.293 
12:15	43.9	43.9	43.9	58	30.1	1	5	270	0.00	30.293 
12:20	43.9	43.9	43.9	58	30.1	1	4	270	0.00	30.293 
12:25	44.1	44.1	44.1	58	30.3	1	3	248	0.00	30.293 
12:30	44.1	44.1	44.1	57	29.9	2	5	248	0.00	30.293 
12:35	44.2	44.2	44.2	56	29.5	1	2	315	0.00	30.293 
12:40	44.3	44.3	44.3	56	29.6	1	3	292	0.00	30.293 
12:45	44.5	44.5	44.5	54	28.9	1	2	292	0.00	30.291 
12:50	44.8	44.8	44.8	54	29.2	2	4	270	0.00	30.291 
12:55	44.6	44.6	44.6	56	29.9	1	3	270	0.00	30.291 
13:00	44.3	44.3	44.3	54	28.7	1	3	338	0.00	30.292 
13:05	44.3	44.3	44.3	55	29.2	1	4	338	0.00	30.292 
13:10	44.5	44.5	44.5	54	28.9	1	4	338	0.00	30.292 
13:15	44.6	44.6	44.6	51	27.6	1	4	315	0.00	30.291 
13:20	44.6	44.6	44.6	52	28.1	1	3	338	0.00	30.291 
13:25	44.5	44.5	44.5	53	28.4	1	4	270	0.00	30.291 
13:30	44.3	44.3	44.3	53	28.3	1	2	270	0.00	30.289 
13:35	44.3	44.3	44.3	52	27.8	1	3	315	0.00	30.289 
13:40	44.3	44.3	44.3	55	29.2	1	2	338	0.00	30.289 
13:45	44.5	44.5	44.5	57	30.2	1	4	248	0.00	30.281 
13:50	44.8	44.8	44.8	57	30.5	1	3	248	0.00	30.281 
13:55	44.8	44.8	44.8	53	28.7	1	4	315	0.00	30.281 
14:00	44.9	44.9	44.9	56	30.2	1	4	315	0.00	30.285 
14:05	45.1	45.1	45.1	55	29.9	1	3	270	0.00	30.285 
14:10	45.1	45.1	45.1	55	29.9	1	3	248	0.00	30.285 
14:15	44.8	44.8	44.8	56	30.1	1	2	0	0.00	30.291 
14:20	44.8	44.8	44.8	54	29.2	1	3	270	0.00	30.291 
14:25	44.9	44.9	44.9	55	29.7	1	4	338	0.00	30.291 
14:30	44.9	44.9	44.9	55	29.7	2	5	338	0.00	30.292 
14:35	45.2	45.2	45.2	52	28.6	1	4	315	0.00	30.292 
14:40	45.2	45.2	45.2	53	29.1	1	3	292	0.00	30.292 
14:45	44.9	44.9	44.9	51	27.9	1	3	338	0.00	30.294 
14:50	44.6	44.6	44.6	54	29.0	1	4	338	0.00	30.294 
14:55	44.8	44.8	44.8	54	29.2	1	5	270	0.00	30.294 
15:00	44.8	44.8	44.8	54	29.2	1	4	338	0.00	30.294 
15:05	44.6	44.6	44.6	54	29.0	1	4	315	0.00	30.294 
15:10	44.6	44.6	44.6	53	28.5	2	6	270	0.00	30.294 
15:15	44.3	44.3	44.3	53	28.3	1	4	315	0.00	30.297 
15:20	44.3	44.3	44.3	56	29.6	1	2	338	0.00	30.297 
15:25	44.3	44.3	44.3	57	30.0	1	3	338	0.00	30.297 
15:30	44.2	44.2	44.2	55	29.1	1	3	315	0.00	30.298 
15:35	44.2	44.2	44.2	55	29.1	1	2	315	0.00	30.298 
15:40	44.3	44.3	44.3	56	29.6	1	5	292	0.00	30.298 
15:45	44.2	44.2	44.2	53	28.2	1	3	0	0.00	30.308 
15:50	43.9	43.9	43.9	55	28.8	1	2	0	0.00	30.308 
15:55	43.8	43.8	43.8	56	29.1	1	3	270	0.00	30.308 
16:00	43.6	43.6	43.6	57	29.4	1	3	22	0.00	30.311 
16:05	43.5	43.5	43.5	55	28.4	1	4	315	0.00	30.311 
16:10	43.3	43.3	43.3	56	28.7	1	5	338	0.00	30.311 
16:15	43.3	43.3	43.3	57	29.1	0	2	338	0.00	30.320 
16:20	43.2	43.2	43.2	57	29.0	1	3	338	0.00	30.320 
16:25	43.1	43.1	43.1	57	28.9	1	2	292	0.00	30.320 
16:30	42.9	42.9	42.9	58	29.2	1	3	270	0.00	30.325 
16:35	42.8	42.8	42.8	58	29.1	0	2	270	0.00	30.325 
16:40	42.5	42.5	42.5	59	29.2	0	3	270	0.00	30.325 
16:45	42.3	42.3	42.3	59	29.0	0	2	338	0.00	30.325 
16:50	42.2	42.2	42.2	60	29.3	0	1	338	0.00	30.325 
16:55	41.9	41.9	41.9	60	29.0	0	1	338	0.00	30.325 
17:00	41.6	41.6	41.6	61	29.2	0	1	338	0.00	30.327 
17:05	41.3	41.3	41.3	62	29.3	0	0	---	0.00	30.327 
17:10	41.1	41.1	41.1	62	29.1	0	0	---	0.00	30.327 
17:15	40.8	40.8	40.8	63	29.2	0	1	338	0.00	30.330 
17:20	40.6	40.6	40.6	63	29.0	0	0	---	0.00	30.330 
17:25	40.3	40.3	40.3	64	29.1	0	0	---	0.00	30.330 
17:30	40.1	40.1	40.1	64	28.9	0	0	---	0.00	30.330 
17:35	39.8	39.8	39.8	65	29.0	0	0	---	0.00	30.330 
17:40	39.5	39.5	39.5	65	28.7	0	0	---	0.00	30.330 
17:45	39.2	39.2	39.2	66	28.8	0	0	---	0.00	30.334 
17:50	38.9	38.9	38.9	66	28.5	0	0	---	0.00	30.334 
17:55	38.6	38.6	38.6	67	28.6	0	0	---	0.00	30.334 
18:00	38.3	38.3	38.3	68	28.7	0	0	---	0.00	30.336 
18:05	38.0	38.0	38.0	68	28.4	0	0	---	0.00	30.336 
18:10	37.9	37.9	37.9	69	28.7	0	0	---	0.00	30.336 
18:15	37.6	37.6	37.6	69	28.4	0	0	---	0.00	30.342 
18:20	37.3	37.3	37.3	70	28.4	0	0	---	0.00	30.342 
18:25	37.2	37.2	37.2	70	28.3	0	0	---	0.00	30.342 
18:30	37.0	37.0	37.0	71	28.5	0	0	---	0.00	30.345 
18:35	36.8	36.8	36.8	72	28.6	0	0	---	0.00	30.345 
18:40	36.3	36.3	36.3	73	28.5	0	0	---	0.00	30.345 
18:45	36.0	36.0	36.0	74	28.5	0	0	---	0.00	30.344 
18:50	35.8	35.8	35.8	75	28.7	0	0	---	0.00	30.344 
18:55	35.5	35.5	35.5	76	28.7	0	0	---	0.00	30.344 
19:00	35.2	35.2	35.2	77	28.7	0	0	---	0.00	30.345 
19:05	34.9	34.9	34.9	77	28.4	0	0	---	0.00	30.345 
19:10	34.7	34.7	34.7	77	28.2	0	0	---	0.00	30.345 
19:15	34.3	34.3	34.3	78	28.2	0	0	---	0.00	30.350 
19:20	34.1	34.1	34.1	79	28.3	0	0	---	0.00	30.350 
19:25	33.8	33.8	33.8	79	28.0	0	0	---	0.00	30.350 
19:30	33.7	33.7	33.7	80	28.2	0	0	---	0.00	30.353 
19:35	33.4	33.4	33.4	80	27.9	0	0	---	0.00	30.353 
19:40	33.1	33.1	33.1	81	27.9	0	0	---	0.00	30.353 
19:45	32.9	32.9	32.9	82	28.0	0	0	---	0.00	30.353 
19:50	32.8	32.8	32.8	82	27.9	0	0	---	0.00	30.353 
19:55	32.8	32.8	32.8	83	28.2	0	0	---	0.00	30.353 
20:00	32.8	32.8	32.8	82	27.9	0	0	---	0.00	30.353 
20:05	32.9	32.9	32.9	82	28.0	0	0	---	0.00	30.353 
20:10	33.2	33.2	33.2	81	28.0	0	0	---	0.00	30.353 
20:15	33.5	33.5	33.5	81	28.3	0	0	---	0.00	30.355 
20:20	33.8	33.8	33.8	80	28.3	0	0	---	0.00	30.355 
20:25	34.0	34.0	34.0	79	28.2	0	0	---	0.00	30.355 
20:30	34.0	34.0	34.0	78	27.9	0	0	---	0.00	30.353 
20:35	34.0	34.0	34.0	79	28.2	0	0	---	0.00	30.353 
20:40	33.8	33.8	33.8	79	28.0	0	0	---	0.00	30.353 
20:45	33.7	33.7	33.7	79	27.9	0	0	---	0.00	30.356 
20:50	33.5	33.5	33.5	79	27.7	0	0	---	0.00	30.356 
20:55	33.4	33.4	33.4	80	27.9	0	0	---	0.00	30.356 
21:00	33.2	33.2	33.2	80	27.7	0	0	---	0.00	30.364 
21:05	33.1	33.1	33.1	80	27.6	0	0	---	0.00	30.364 
21:10	32.9	32.9	32.9	81	27.7	0	0	---	0.00	30.364 
21:15	32.8	32.8	32.8	81	27.6	0	0	---	0.00	30.363 
21:20	32.8	32.8	32.8	81	27.6	0	0	---	0.00	30.363 
21:25	32.8	32.8	32.8	81	27.6	0	0	---	0.00	30.363 
21:30	32.7	32.7	32.7	81	27.5	0	0	---	0.00	30.363 
21:35	32.7	32.7	32.7	81	27.5	0	0	---	0.00	30.363 
21:40	32.5	32.5	32.5	81	27.3	0	0	---	0.00	30.363 
21:45	32.4	32.4	32.4	81	27.2	0	0	---	0.00	30.361 
21:50	32.4	32.4	32.4	82	27.5	0	0	---	0.00	30.361 
21:55	32.4	32.4	32.4	82	27.5	0	0	---	0.00	30.361 
22:00	32.4	32.4	32.4	82	27.5	0	0	---	0.00	30.365 
22:05	32.7	32.7	32.7	82	27.8	0	1	338	0.00	30.365 
22:10	32.9	32.9	32.9	81	27.7	0	1	338	0.00	30.365 
22:15	33.1	33.1	33.1	81	27.9	0	1	338	0.00	30.360 
22:20	33.2	33.2	33.2	81	28.0	0	0	---	0.00	30.360 
22:25	33.4	33.4	33.4	80	27.9	0	0	---	0.00	30.360 
22:30	33.2	33.2	33.2	80	27.7	0	0	---	0.00	30.358 
22:35	33.2	33.2	33.2	80	27.7	0	1	338	0.00	30.358 
22:40	33.1	33.1	33.1	80	27.6	0	0	---	0.00	30.358 
22:45	32.9	32.9	32.9	80	27.4	0	0	---	0.00	30.359 
22:50	32.8	32.8	32.8	81	27.6	0	0	---	0.00	30.359 
22:55	32.7	32.7	32.7	81	27.5	0	1	338	0.00	30.359 
23:00	32.7	32.7	32.7	81	27.5	0	0	---	0.00	30.358 
23:05	32.5	32.5	32.5	81	27.3	0	0	---	0.00	30.358 
23:10	32.5	32.5	32.5	81	27.3	0	0	---	0.00	30.358 
23:15	32.7	32.7	32.7	82	27.8	0	0	---	0.00	30.352 
23:20	32.7	32.7	32.7	82	27.8	0	0	---	0.00	30.352 
23:25	32.5	32.5	32.5	82	27.6	0	0	---	0.00	30.352 
23:30	32.5	32.5	32.5	82	27.6	0	0	---	0.00	30.350 
23:35	32.5	32.5	32.5	82	27.6	0	0	---	0.00	30.350 
23:40	32.7	32.7	32.7	83	28.1	0	1	338	0.00	30.350 
23:45	32.8	32.8	32.8	82	27.9	0	1	338	0.00	30.360 
23:50	32.9	32.9	32.9	82	28.0	0	1	338	0.00	30.360 
23:55	32.9	32.9	32.9	82	28.0	0	1	338	0.00	30.360 

CoCoRaHS
IN-AL-39
A2 Web Hosting
Creative Commons License
GoDaddy
Look for:

loaded 2017-12-11 06:54:57 • last modified 2010-11-18 10:43:29
Privacy PolicyDisclaimer
• wx.awcolley.com is powered by PmWiki v.2002016 •
• all content (unless otherwise noted) © 2017 A W Colley